Dorothea — WDC4584 — position and weather

sailwx.info

Track history (hours):
 
Tides and Currents Weather Stations Pressure Air Temp Water Temp Dewpoint Dewpoint Depression Visibility Wind Speed Wind Dir Waves Ship Positions

Dorothea

More information available from US FCC via Universal Licensing System and Coast Guard Vessel Documentation Center.

Last reported at 2014-Jun-11 12:15 UTC. Time now 2014-Jul-25 18:27 UTC.
Position N 58°18' W 136°13'.
Warning: this ship's position is 44 days out of date.

Length 26 m.

Type: Fishing. MMSI: 367026930.

Date/timePositionNaut miles runAvg speedWind from/ knotsBaromVisibWave heightAir tempDewpointWater temp
2014-Jun-11 12:15N 58°18' W 136°13'6 9.4
2014-Jun-11 11:34N 58°20' W 136°01'9 8.8
2014-Jun-11 10:33N 58°17' W 135°45'9 8.3
2014-Jun-11 09:27N 58°14' W 135°29'  
2014-Jun-07 17:09N 54°35' W 130°39'4 7.5
2014-Jun-07 16:33N 54°31' W 130°39'8 7.8
2014-Jun-07 15:34N 54°23' W 130°36'8 7.7
2014-Jun-07 14:34N 54°16' W 130°31'147 6.7
2014-Jun-06 16:33N 52°14' W 128°13'5 5.3
2014-Jun-06 15:33N 52°10' W 128°08'7 5.9
2014-Jun-06 14:26N 52°05' W 128°01'5 5.8
2014-Jun-06 13:32N 52°00' W 127°56'27 6.9
2014-Jun-06 09:33N 51°33' W 127°52'6 6.2
2014-Jun-06 08:33N 51°27' W 127°51'21 6.9
2014-Jun-06 05:28N 51°06' W 127°50'7 7.2
2014-Jun-06 04:28N 50°59' W 127°46'2627.5
2014-Jun-06 03:32N 50°42' W 127°16'10 9.9
2014-Jun-06 02:30N 50°37' W 127°01'1515.5
2014-Jun-06 01:33N 50°32' W 126°40'6 5.4
2014-Jun-06 00:28N 50°30' W 126°31'3 2.8
2014-Jun-05 23:31N 50°30' W 126°27'2 2.1
2014-Jun-05 22:23N 50°30' W 126°23'2 2.0
2014-Jun-05 21:13N 50°30' W 126°19'41 4.2
2014-Jun-05 11:30N 50°11' W 125°22'13 9.8
2014-Jun-05 10:13N 50°00' W 125°13'8 7.8
2014-Jun-05 09:15N 49°55' W 125°04'5 6.9
2014-Jun-05 08:32N 49°51' W 124°59'7 6.8
2014-Jun-05 07:33N 49°46' W 124°52'7 6.6
2014-Jun-05 06:33N 49°42' W 124°45'6 6.0
2014-Jun-05 05:32N 49°37' W 124°39'6 6.2
2014-Jun-05 04:33N 49°33' W 124°33'6 6.3
2014-Jun-05 03:33N 49°28' W 124°26'7 7.3
2014-Jun-05 02:33N 49°25' W 124°15'7 7.3
2014-Jun-05 01:33N 49°23' W 124°05'7 7.1
2014-Jun-05 00:33N 49°22' W 123°54'5 5.4
2014-Jun-04 23:33N 49°18' W 123°48'6 5.6
2014-Jun-04 22:33N 49°15' W 123°41'6 6.1
2014-Jun-04 21:33N 49°11' W 123°33'6 6.2
2014-Jun-04 20:33N 49°08' W 123°26'6 6.4
2014-Jun-04 19:33N 49°03' W 123°19'6 6.3
2014-Jun-04 18:33N 48°59' W 123°12'6 6.0
2014-Jun-04 17:33N 48°55' W 123°05'6 6.3
2014-Jun-04 16:33N 48°51' W 122°57'6 6.4
2014-Jun-04 15:33N 48°47' W 122°50'6 6.4
2014-Jun-04 14:33N 48°42' W 122°43'6 6.3
2014-Jun-04 13:33N 48°36' W 122°45'6 5.8
2014-Jun-04 12:33N 48°30' W 122°44'6 6.2
2014-Jun-04 11:32N 48°24' W 122°44'7 6.8
2014-Jun-04 10:31N 48°17' W 122°47'7 7.2
2014-Jun-04 09:31N 48°10' W 122°45'11 9.7
2014-Jun-04 08:23N 48°01' W 122°36'8 9.1
2014-Jun-04 07:33N 47°55' W 122°29'2 8.4
2014-Jun-04 07:22N 47°54' W 122°28'7 8.1
2014-Jun-04 06:33N 47°47' W 122°26'0 7.1
2014-Jun-04 06:32N 47°47' W 122°26'7 7.2
2014-Jun-04 05:33N 47°40' W 122°24'0 4.5
2014-Jun-04 05:32N 47°40' W 122°24'1 1.1
2014-Jun-04 04:33N 47°40' W 122°23'0 1.5
2014-Jun-04 04:31N 47°40' W 122°23'0 0.0
2014-Jun-04 03:33N 47°40' W 122°23'0 0.2
2014-Jun-04 03:31N 47°40' W 122°23'0 0.0
2014-Jun-04 02:34N 47°40' W 122°23'0 0.0
2014-Jun-04 02:31N 47°40' W 122°23'0 0.0
2014-Jun-04 01:33N 47°40' W 122°23'0 0.2
2014-Jun-04 01:31N 47°40' W 122°23'0 0.0
2014-Jun-04 00:33N 47°40' W 122°23'0 0.2
2014-Jun-04 00:31N 47°40' W 122°23'0 0.0
2014-Jun-03 23:33N 47°40' W 122°23'0 0.0
2014-Jun-03 23:31N 47°40' W 122°23'0 0.0
2014-Jun-03 22:33N 47°40' W 122°23'0 0.0
2014-Jun-03 22:31N 47°40' W 122°23'0 0.0
2014-Jun-03 21:33N 47°40' W 122°23'0 0.2
2014-Jun-03 21:31N 47°40' W 122°23'0 0.0
2014-Jun-03 20:33N 47°40' W 122°23'0 0.0
2014-Jun-03 19:33N 47°40' W 122°23'0 0.0
2014-Jun-03 18:33N 47°40' W 122°23'0 0.0
2014-Jun-03 18:17N 47°40' W 122°23'0 0.0
2014-Jun-03 17:33N 47°40' W 122°23'0 0.5
2014-Jun-03 17:32N 47°40' W 122°23'0 0.0
2014-Jun-03 16:33N 47°40' W 122°23'0 0.0
2014-Jun-03 16:32N 47°40' W 122°23'0 0.0
2014-Jun-03 15:34N 47°40' W 122°23'0 0.0
2014-Jun-03 15:32N 47°40' W 122°23'0 0.0
2014-Jun-03 14:33N 47°40' W 122°23'0 0.0
2014-Jun-03 14:26N 47°40' W 122°23'0 0.0
2014-Jun-03 13:33N 47°40' W 122°23'0 0.0
2014-Jun-03 13:32N 47°40' W 122°23'0 0.0
2014-Jun-03 12:33N 47°40' W 122°23'0 0.0
2014-Jun-03 12:31N 47°40' W 122°23'0 0.0
2014-Jun-03 11:33N 47°40' W 122°23'0 0.2
2014-Jun-03 11:32N 47°40' W 122°23'0 0.0
2014-Jun-03 10:33N 47°40' W 122°23'0 0.0
2014-Jun-03 10:32N 47°40' W 122°23'0 0.0
2014-Jun-03 09:33N 47°40' W 122°23'0 0.2
2014-Jun-03 09:32N 47°40' W 122°23'0 0.0
2014-Jun-03 08:33N 47°40' W 122°23'0 0.2
2014-Jun-03 08:31N 47°40' W 122°23'0 0.0
2014-Jun-03 07:33N 47°40' W 122°23'0 0.0
2014-Jun-03 07:31N 47°40' W 122°23'0 0.0
2014-Jun-03 06:33N 47°40' W 122°23'0 0.0
2014-Jun-03 06:31N 47°40' W 122°23'0 0.0
2014-Jun-03 05:33N 47°40' W 122°23'0 0.3
2014-Jun-03 05:31N 47°40' W 122°23'0 0.0
2014-Jun-03 04:33N 47°40' W 122°23'0 0.2
2014-Jun-03 04:31N 47°40' W 122°23'0 0.0
2014-Jun-03 03:33N 47°40' W 122°23'0 0.2
2014-Jun-03 03:31N 47°40' W 122°23'0 0.0
2014-Jun-03 02:33N 47°40' W 122°23'0 0.2
2014-Jun-03 02:31N 47°40' W 122°23'0 0.0
2014-Jun-03 01:33N 47°40' W 122°23'0 0.0
2014-Jun-03 01:31N 47°40' W 122°23'0 0.0
2014-Jun-03 00:33N 47°40' W 122°23'0 0.0
2014-Jun-03 00:30N 47°40' W 122°23'0 0.0
2014-Jun-02 23:33N 47°40' W 122°23'0 0.0
2014-Jun-02 23:31N 47°40' W 122°23'0 0.0
2014-Jun-02 22:33N 47°40' W 122°23'0 0.0
2014-Jun-02 22:30N 47°40' W 122°23'0 0.0
2014-Jun-02 21:33N 47°40' W 122°23'0 0.0
2014-Jun-02 21:30N 47°40' W 122°23'0 0.0
2014-Jun-02 20:33N 47°40' W 122°23'0 0.5
2014-Jun-02 20:30N 47°40' W 122°23'1 0.6
2014-Jun-02 19:33N 47°40' W 122°23'0 0.0
2014-Jun-02 19:30N 47°40' W 122°23'0 0.0
2014-Jun-02 18:33N 47°40' W 122°23'0 0.1
2014-Jun-02 18:30N 47°40' W 122°23'0 0.0
2014-Jun-02 17:33N 47°40' W 122°23'0 0.1
2014-Jun-02 17:30N 47°40' W 122°23'1 0.6
2014-Jun-02 16:34N 47°40' W 122°23'0 0.7
2014-Jun-02 16:30N 47°40' W 122°23'  
Track history (hours):
 
Tides and Currents Weather Stations Pressure Air Temp Water Temp Dewpoint Dewpoint Depression Visibility Wind Speed Wind Dir Waves Ship Positions

Dorothea

More information available from US FCC via Universal Licensing System and Coast Guard Vessel Documentation Center.

Last reported at 2014-Jun-11 12:15 UTC. Time now 2014-Jul-25 18:27 UTC.
Position N 58°18' W 136°13'.
Warning: this ship's position is 44 days out of date.

Length 26 m.

Type: Fishing. MMSI: 367026930.

Date/timePositionNaut miles runAvg speedWind from/ knotsBaromVisibWave heightAir tempDewpointWater temp
2014-Jun-11 12:15N 58°18' W 136°13'6 9.4
2014-Jun-11 11:34N 58°20' W 136°01'9 8.8
2014-Jun-11 10:33N 58°17' W 135°45'9 8.3
2014-Jun-11 09:27N 58°14' W 135°29'  
2014-Jun-07 17:09N 54°35' W 130°39'4 7.5
2014-Jun-07 16:33N 54°31' W 130°39'8 7.8
2014-Jun-07 15:34N 54°23' W 130°36'8 7.7
2014-Jun-07 14:34N 54°16' W 130°31'147 6.7
2014-Jun-06 16:33N 52°14' W 128°13'5 5.3
2014-Jun-06 15:33N 52°10' W 128°08'7 5.9
2014-Jun-06 14:26N 52°05' W 128°01'5 5.8
2014-Jun-06 13:32N 52°00' W 127°56'27 6.9
2014-Jun-06 09:33N 51°33' W 127°52'6 6.2
2014-Jun-06 08:33N 51°27' W 127°51'21 6.9
2014-Jun-06 05:28N 51°06' W 127°50'7 7.2
2014-Jun-06 04:28N 50°59' W 127°46'2627.5
2014-Jun-06 03:32N 50°42' W 127°16'10 9.9
2014-Jun-06 02:30N 50°37' W 127°01'1515.5
2014-Jun-06 01:33N 50°32' W 126°40'6 5.4
2014-Jun-06 00:28N 50°30' W 126°31'3 2.8
2014-Jun-05 23:31N 50°30' W 126°27'2 2.1
2014-Jun-05 22:23N 50°30' W 126°23'2 2.0
2014-Jun-05 21:13N 50°30' W 126°19'41 4.2
2014-Jun-05 11:30N 50°11' W 125°22'13 9.8
2014-Jun-05 10:13N 50°00' W 125°13'8 7.8
2014-Jun-05 09:15N 49°55' W 125°04'5 6.9
2014-Jun-05 08:32N 49°51' W 124°59'7 6.8
2014-Jun-05 07:33N 49°46' W 124°52'7 6.6
2014-Jun-05 06:33N 49°42' W 124°45'6 6.0
2014-Jun-05 05:32N 49°37' W 124°39'6 6.2
2014-Jun-05 04:33N 49°33' W 124°33'6 6.3
2014-Jun-05 03:33N 49°28' W 124°26'7 7.3
2014-Jun-05 02:33N 49°25' W 124°15'7 7.3
2014-Jun-05 01:33N 49°23' W 124°05'7 7.1
2014-Jun-05 00:33N 49°22' W 123°54'5 5.4
2014-Jun-04 23:33N 49°18' W 123°48'6 5.6
2014-Jun-04 22:33N 49°15' W 123°41'6 6.1
2014-Jun-04 21:33N 49°11' W 123°33'6 6.2
2014-Jun-04 20:33N 49°08' W 123°26'6 6.4
2014-Jun-04 19:33N 49°03' W 123°19'6 6.3
2014-Jun-04 18:33N 48°59' W 123°12'6 6.0
2014-Jun-04 17:33N 48°55' W 123°05'6 6.3
2014-Jun-04 16:33N 48°51' W 122°57'6 6.4
2014-Jun-04 15:33N 48°47' W 122°50'6 6.4
2014-Jun-04 14:33N 48°42' W 122°43'6 6.3
2014-Jun-04 13:33N 48°36' W 122°45'6 5.8
2014-Jun-04 12:33N 48°30' W 122°44'6 6.2
2014-Jun-04 11:32N 48°24' W 122°44'7 6.8
2014-Jun-04 10:31N 48°17' W 122°47'7 7.2
2014-Jun-04 09:31N 48°10' W 122°45'11 9.7
2014-Jun-04 08:23N 48°01' W 122°36'8 9.1
2014-Jun-04 07:33N 47°55' W 122°29'2 8.4
2014-Jun-04 07:22N 47°54' W 122°28'7 8.1
2014-Jun-04 06:33N 47°47' W 122°26'0 7.1
2014-Jun-04 06:32N 47°47' W 122°26'7 7.2
2014-Jun-04 05:33N 47°40' W 122°24'0 4.5
2014-Jun-04 05:32N 47°40' W 122°24'1 1.1
2014-Jun-04 04:33N 47°40' W 122°23'0 1.5
2014-Jun-04 04:31N 47°40' W 122°23'0 0.0
2014-Jun-04 03:33N 47°40' W 122°23'0 0.2
2014-Jun-04 03:31N 47°40' W 122°23'0 0.0
2014-Jun-04 02:34N 47°40' W 122°23'0 0.0
2014-Jun-04 02:31N 47°40' W 122°23'0 0.0
2014-Jun-04 01:33N 47°40' W 122°23'0 0.2
2014-Jun-04 01:31N 47°40' W 122°23'0 0.0
2014-Jun-04 00:33N 47°40' W 122°23'0 0.2
2014-Jun-04 00:31N 47°40' W 122°23'0 0.0
2014-Jun-03 23:33N 47°40' W 122°23'0 0.0
2014-Jun-03 23:31N 47°40' W 122°23'0 0.0
2014-Jun-03 22:33N 47°40' W 122°23'0 0.0
2014-Jun-03 22:31N 47°40' W 122°23'0 0.0
2014-Jun-03 21:33N 47°40' W 122°23'0 0.2
2014-Jun-03 21:31N 47°40' W 122°23'0 0.0
2014-Jun-03 20:33N 47°40' W 122°23'0 0.0
2014-Jun-03 19:33N 47°40' W 122°23'0 0.0
2014-Jun-03 18:33N 47°40' W 122°23'0 0.0
2014-Jun-03 18:17N 47°40' W 122°23'0 0.0
2014-Jun-03 17:33N 47°40' W 122°23'0 0.5
2014-Jun-03 17:32N 47°40' W 122°23'0 0.0
2014-Jun-03 16:33N 47°40' W 122°23'0 0.0
2014-Jun-03 16:32N 47°40' W 122°23'0 0.0
2014-Jun-03 15:34N 47°40' W 122°23'0 0.0
2014-Jun-03 15:32N 47°40' W 122°23'0 0.0
2014-Jun-03 14:33N 47°40' W 122°23'0 0.0
2014-Jun-03 14:26N 47°40' W 122°23'0 0.0
2014-Jun-03 13:33N 47°40' W 122°23'0 0.0
2014-Jun-03 13:32N 47°40' W 122°23'0 0.0
2014-Jun-03 12:33N 47°40' W 122°23'0 0.0
2014-Jun-03 12:31N 47°40' W 122°23'0 0.0
2014-Jun-03 11:33N 47°40' W 122°23'0 0.2
2014-Jun-03 11:32N 47°40' W 122°23'0 0.0
2014-Jun-03 10:33N 47°40' W 122°23'0 0.0
2014-Jun-03 10:32N 47°40' W 122°23'0 0.0
2014-Jun-03 09:33N 47°40' W 122°23'0 0.2
2014-Jun-03 09:32N 47°40' W 122°23'0 0.0
2014-Jun-03 08:33N 47°40' W 122°23'0 0.2
2014-Jun-03 08:31N 47°40' W 122°23'0 0.0
2014-Jun-03 07:33N 47°40' W 122°23'0 0.0
2014-Jun-03 07:31N 47°40' W 122°23'0 0.0
2014-Jun-03 06:33N 47°40' W 122°23'0 0.0
2014-Jun-03 06:31N 47°40' W 122°23'0 0.0
2014-Jun-03 05:33N 47°40' W 122°23'0 0.3
2014-Jun-03 05:31N 47°40' W 122°23'0 0.0
2014-Jun-03 04:33N 47°40' W 122°23'0 0.2
2014-Jun-03 04:31N 47°40' W 122°23'0 0.0
2014-Jun-03 03:33N 47°40' W 122°23'0 0.2
2014-Jun-03 03:31N 47°40' W 122°23'0 0.0
2014-Jun-03 02:33N 47°40' W 122°23'0 0.2
2014-Jun-03 02:31N 47°40' W 122°23'0 0.0
2014-Jun-03 01:33N 47°40' W 122°23'0 0.0
2014-Jun-03 01:31N 47°40' W 122°23'0 0.0
2014-Jun-03 00:33N 47°40' W 122°23'0 0.0
2014-Jun-03 00:30N 47°40' W 122°23'0 0.0
2014-Jun-02 23:33N 47°40' W 122°23'0 0.0
2014-Jun-02 23:31N 47°40' W 122°23'0 0.0
2014-Jun-02 22:33N 47°40' W 122°23'0 0.0
2014-Jun-02 22:30N 47°40' W 122°23'0 0.0
2014-Jun-02 21:33N 47°40' W 122°23'0 0.0
2014-Jun-02 21:30N 47°40' W 122°23'0 0.0
2014-Jun-02 20:33N 47°40' W 122°23'0 0.5
2014-Jun-02 20:30N 47°40' W 122°23'1 0.6
2014-Jun-02 19:33N 47°40' W 122°23'0 0.0
2014-Jun-02 19:30N 47°40' W 122°23'0 0.0
2014-Jun-02 18:33N 47°40' W 122°23'0 0.1
2014-Jun-02 18:30N 47°40' W 122°23'0 0.0
2014-Jun-02 17:33N 47°40' W 122°23'0 0.1
2014-Jun-02 17:30N 47°40' W 122°23'1 0.6
2014-Jun-02 16:34N 47°40' W 122°23'0 0.7
2014-Jun-02 16:30N 47°40' W 122°23'  

Dump ship's entire track history